sensor_id;sensor_type;location;lat;lon;timestamp;P1;durP1;ratioP1;P2;durP2;ratioP2
12816;SDS011;6473;51.552;6.716;2024-02-26T00:01:32;2.03;;;1.60;;
12816;SDS011;6473;51.552;6.716;2024-02-26T00:04:01;1.95;;;1.50;;
12816;SDS011;6473;51.552;6.716;2024-02-26T00:06:28;2.13;;;1.92;;
12816;SDS011;6473;51.552;6.716;2024-02-26T00:08:55;4.10;;;1.70;;
12816;SDS011;6473;51.552;6.716;2024-02-26T00:11:22;3.35;;;1.90;;
12816;SDS011;6473;51.552;6.716;2024-02-26T00:13:49;1.67;;;1.58;;
12816;SDS011;6473;51.552;6.716;2024-02-26T00:16:16;1.98;;;1.80;;
12816;SDS011;6473;51.552;6.716;2024-02-26T00:18:43;1.77;;;1.67;;
12816;SDS011;6473;51.552;6.716;2024-02-26T00:21:12;2.42;;;1.88;;
12816;SDS011;6473;51.552;6.716;2024-02-26T00:23:39;1.55;;;1.45;;
12816;SDS011;6473;51.552;6.716;2024-02-26T00:26:06;1.90;;;1.73;;
12816;SDS011;6473;51.552;6.716;2024-02-26T00:28:34;1.90;;;1.65;;
12816;SDS011;6473;51.552;6.716;2024-02-26T00:31:01;1.90;;;1.80;;
12816;SDS011;6473;51.552;6.716;2024-02-26T00:33:28;2.00;;;1.85;;
12816;SDS011;6473;51.552;6.716;2024-02-26T00:35:55;1.70;;;1.58;;
12816;SDS011;6473;51.552;6.716;2024-02-26T00:38:23;4.57;;;1.80;;
12816;SDS011;6473;51.552;6.716;2024-02-26T00:40:50;1.50;;;1.40;;
12816;SDS011;6473;51.552;6.716;2024-02-26T00:43:17;3.10;;;1.98;;
12816;SDS011;6473;51.552;6.716;2024-02-26T00:45:44;1.40;;;1.30;;
12816;SDS011;6473;51.552;6.716;2024-02-26T00:48:12;2.22;;;1.63;;
12816;SDS011;6473;51.552;6.716;2024-02-26T00:50:39;1.70;;;1.60;;
12816;SDS011;6473;51.552;6.716;2024-02-26T00:53:06;1.50;;;1.40;;
12816;SDS011;6473;51.552;6.716;2024-02-26T00:55:35;1.70;;;1.60;;
12816;SDS011;6473;51.552;6.716;2024-02-26T00:58:02;2.08;;;1.65;;
12816;SDS011;6473;51.552;6.716;2024-02-26T01:00:29;1.77;;;1.65;;
12816;SDS011;6473;51.552;6.716;2024-02-26T01:02:55;1.52;;;1.42;;
12816;SDS011;6473;51.552;6.716;2024-02-26T01:05:23;1.77;;;1.67;;
12816;SDS011;6473;51.552;6.716;2024-02-26T01:07:50;2.67;;;1.50;;
12816;SDS011;6473;51.552;6.716;2024-02-26T01:10:17;1.38;;;1.27;;
12816;SDS011;6473;51.552;6.716;2024-02-26T01:12:45;1.90;;;1.80;;
12816;SDS011;6473;51.552;6.716;2024-02-26T01:15:12;2.25;;;2.05;;
12816;SDS011;6473;51.552;6.716;2024-02-26T01:17:39;3.80;;;1.95;;
12816;SDS011;6473;51.552;6.716;2024-02-26T01:20:06;2.28;;;2.00;;
12816;SDS011;6473;51.552;6.716;2024-02-26T01:22:35;1.95;;;1.85;;
12816;SDS011;6473;51.552;6.716;2024-02-26T01:25:02;1.90;;;1.80;;
12816;SDS011;6473;51.552;6.716;2024-02-26T01:27:29;1.77;;;1.60;;
12816;SDS011;6473;51.552;6.716;2024-02-26T01:29:57;2.35;;;2.00;;
12816;SDS011;6473;51.552;6.716;2024-02-26T01:32:24;3.60;;;1.85;;
12816;SDS011;6473;51.552;6.716;2024-02-26T01:34:51;2.00;;;1.90;;
12816;SDS011;6473;51.552;6.716;2024-02-26T01:37:18;2.55;;;2.20;;
12816;SDS011;6473;51.552;6.716;2024-02-26T01:39:49;2.03;;;1.92;;
12816;SDS011;6473;51.552;6.716;2024-02-26T01:42:18;2.00;;;1.80;;
12816;SDS011;6473;51.552;6.716;2024-02-26T01:44:46;3.20;;;2.03;;
12816;SDS011;6473;51.552;6.716;2024-02-26T01:47:14;2.17;;;1.85;;
12816;SDS011;6473;51.552;6.716;2024-02-26T01:49:41;1.80;;;1.70;;
12816;SDS011;6473;51.552;6.716;2024-02-26T01:52:09;2.55;;;1.90;;
12816;SDS011;6473;51.552;6.716;2024-02-26T01:54:37;2.45;;;2.03;;
12816;SDS011;6473;51.552;6.716;2024-02-26T01:57:04;2.42;;;1.80;;
12816;SDS011;6473;51.552;6.716;2024-02-26T01:59:32;1.75;;;1.60;;
12816;SDS011;6473;51.552;6.716;2024-02-26T02:02:01;2.17;;;1.95;;
12816;SDS011;6473;51.552;6.716;2024-02-26T02:04:33;2.00;;;1.85;;
12816;SDS011;6473;51.552;6.716;2024-02-26T02:07:01;2.63;;;1.92;;
12816;SDS011;6473;51.552;6.716;2024-02-26T02:09:28;2.35;;;2.00;;
12816;SDS011;6473;51.552;6.716;2024-02-26T02:11:55;1.98;;;1.80;;
12816;SDS011;6473;51.552;6.716;2024-02-26T02:14:22;2.10;;;2.00;;
12816;SDS011;6473;51.552;6.716;2024-02-26T02:16:51;1.92;;;1.75;;
12816;SDS011;6473;51.552;6.716;2024-02-26T02:19:18;2.00;;;1.85;;
12816;SDS011;6473;51.552;6.716;2024-02-26T02:21:47;2.10;;;1.90;;
12816;SDS011;6473;51.552;6.716;2024-02-26T02:24:13;2.00;;;1.90;;
12816;SDS011;6473;51.552;6.716;2024-02-26T02:26:40;2.00;;;1.90;;
12816;SDS011;6473;51.552;6.716;2024-02-26T02:29:07;2.00;;;1.90;;
12816;SDS011;6473;51.552;6.716;2024-02-26T02:31:37;1.95;;;1.73;;
12816;SDS011;6473;51.552;6.716;2024-02-26T02:34:04;2.33;;;2.13;;
12816;SDS011;6473;51.552;6.716;2024-02-26T02:36:31;2.20;;;1.80;;
12816;SDS011;6473;51.552;6.716;2024-02-26T02:39:00;1.92;;;1.80;;
12816;SDS011;6473;51.552;6.716;2024-02-26T02:41:28;2.33;;;1.90;;
12816;SDS011;6473;51.552;6.716;2024-02-26T02:43:55;2.75;;;1.98;;
12816;SDS011;6473;51.552;6.716;2024-02-26T02:46:22;2.03;;;1.83;;
12816;SDS011;6473;51.552;6.716;2024-02-26T02:48:50;2.05;;;1.85;;
12816;SDS011;6473;51.552;6.716;2024-02-26T02:51:16;2.03;;;1.90;;
12816;SDS011;6473;51.552;6.716;2024-02-26T02:53:43;1.85;;;1.73;;
12816;SDS011;6473;51.552;6.716;2024-02-26T02:56:11;1.75;;;1.65;;
12816;SDS011;6473;51.552;6.716;2024-02-26T02:58:38;2.58;;;1.90;;
12816;SDS011;6473;51.552;6.716;2024-02-26T03:01:05;2.65;;;2.17;;
12816;SDS011;6473;51.552;6.716;2024-02-26T03:03:32;1.83;;;1.70;;
12816;SDS011;6473;51.552;6.716;2024-02-26T03:06:01;2.08;;;1.83;;
12816;SDS011;6473;51.552;6.716;2024-02-26T03:08:28;1.70;;;1.60;;
12816;SDS011;6473;51.552;6.716;2024-02-26T03:10:55;2.53;;;1.83;;
12816;SDS011;6473;51.552;6.716;2024-02-26T03:13:26;1.90;;;1.80;;
12816;SDS011;6473;51.552;6.716;2024-02-26T03:15:53;2.35;;;1.80;;
12816;SDS011;6473;51.552;6.716;2024-02-26T03:18:19;2.17;;;1.98;;
12816;SDS011;6473;51.552;6.716;2024-02-26T03:20:46;1.98;;;1.80;;
12816;SDS011;6473;51.552;6.716;2024-02-26T03:23:13;2.20;;;2.00;;
12816;SDS011;6473;51.552;6.716;2024-02-26T03:25:41;2.38;;;2.00;;
12816;SDS011;6473;51.552;6.716;2024-02-26T03:28:08;1.80;;;1.70;;
12816;SDS011;6473;51.552;6.716;2024-02-26T03:30:37;1.80;;;1.70;;
12816;SDS011;6473;51.552;6.716;2024-02-26T03:33:04;2.30;;;2.08;;
12816;SDS011;6473;51.552;6.716;2024-02-26T03:35:31;1.83;;;1.70;;
12816;SDS011;6473;51.552;6.716;2024-02-26T03:37:57;1.90;;;1.80;;
12816;SDS011;6473;51.552;6.716;2024-02-26T03:40:24;1.85;;;1.75;;
12816;SDS011;6473;51.552;6.716;2024-02-26T03:42:51;2.05;;;1.80;;
12816;SDS011;6473;51.552;6.716;2024-02-26T03:45:19;2.15;;;1.95;;
12816;SDS011;6473;51.552;6.716;2024-02-26T03:47:47;2.10;;;1.90;;
12816;SDS011;6473;51.552;6.716;2024-02-26T03:50:14;2.08;;;1.90;;
12816;SDS011;6473;51.552;6.716;2024-02-26T03:52:41;1.83;;;1.73;;
12816;SDS011;6473;51.552;6.716;2024-02-26T03:55:08;1.80;;;1.70;;
12816;SDS011;6473;51.552;6.716;2024-02-26T03:57:36;3.13;;;1.88;;
12816;SDS011;6473;51.552;6.716;2024-02-26T04:00:03;3.40;;;1.92;;
12816;SDS011;6473;51.552;6.716;2024-02-26T04:02:36;2.67;;;2.05;;
12816;SDS011;6473;51.552;6.716;2024-02-26T04:05:04;3.33;;;2.00;;
12816;SDS011;6473;51.552;6.716;2024-02-26T04:07:35;2.30;;;2.10;;
12816;SDS011;6473;51.552;6.716;2024-02-26T04:10:02;3.15;;;1.90;;
12816;SDS011;6473;51.552;6.716;2024-02-26T04:12:30;2.30;;;2.10;;
12816;SDS011;6473;51.552;6.716;2024-02-26T04:14:57;2.10;;;1.90;;
12816;SDS011;6473;51.552;6.716;2024-02-26T04:17:24;2.53;;;1.98;;
12816;SDS011;6473;51.552;6.716;2024-02-26T04:19:51;2.40;;;2.20;;
12816;SDS011;6473;51.552;6.716;2024-02-26T04:22:19;1.88;;;1.77;;
12816;SDS011;6473;51.552;6.716;2024-02-26T04:24:46;2.55;;;1.70;;
12816;SDS011;6473;51.552;6.716;2024-02-26T04:27:13;2.00;;;1.90;;
12816;SDS011;6473;51.552;6.716;2024-02-26T04:29:40;1.77;;;1.67;;
12816;SDS011;6473;51.552;6.716;2024-02-26T04:32:07;2.13;;;1.92;;
12816;SDS011;6473;51.552;6.716;2024-02-26T04:34:34;2.38;;;2.17;;
12816;SDS011;6473;51.552;6.716;2024-02-26T04:37:02;2.05;;;1.88;;
12816;SDS011;6473;51.552;6.716;2024-02-26T04:39:31;2.05;;;1.92;;
12816;SDS011;6473;51.552;6.716;2024-02-26T04:41:58;2.28;;;2.08;;
12816;SDS011;6473;51.552;6.716;2024-02-26T04:44:29;3.55;;;2.00;;
12816;SDS011;6473;51.552;6.716;2024-02-26T04:46:56;2.00;;;1.90;;
12816;SDS011;6473;51.552;6.716;2024-02-26T04:49:23;1.63;;;1.52;;
12816;SDS011;6473;51.552;6.716;2024-02-26T04:51:50;2.17;;;1.92;;
12816;SDS011;6473;51.552;6.716;2024-02-26T04:54:17;1.88;;;1.77;;
12816;SDS011;6473;51.552;6.716;2024-02-26T04:56:45;2.13;;;2.00;;
12816;SDS011;6473;51.552;6.716;2024-02-26T04:59:14;1.90;;;1.80;;
12816;SDS011;6473;51.552;6.716;2024-02-26T05:01:42;2.08;;;1.88;;
12816;SDS011;6473;51.552;6.716;2024-02-26T05:04:09;3.05;;;1.90;;
12816;SDS011;6473;51.552;6.716;2024-02-26T05:06:37;2.00;;;1.90;;
12816;SDS011;6473;51.552;6.716;2024-02-26T05:09:04;2.03;;;1.83;;
12816;SDS011;6473;51.552;6.716;2024-02-26T05:11:32;1.90;;;1.80;;
12816;SDS011;6473;51.552;6.716;2024-02-26T05:14:02;1.88;;;1.77;;
12816;SDS011;6473;51.552;6.716;2024-02-26T05:16:29;1.95;;;1.80;;
12816;SDS011;6473;51.552;6.716;2024-02-26T05:18:56;2.15;;;2.00;;
12816;SDS011;6473;51.552;6.716;2024-02-26T05:21:23;2.17;;;1.98;;
12816;SDS011;6473;51.552;6.716;2024-02-26T05:23:50;1.92;;;1.80;;
12816;SDS011;6473;51.552;6.716;2024-02-26T05:26:20;2.40;;;2.20;;
12816;SDS011;6473;51.552;6.716;2024-02-26T05:28:47;2.00;;;1.90;;
12816;SDS011;6473;51.552;6.716;2024-02-26T05:31:16;2.20;;;2.00;;
12816;SDS011;6473;51.552;6.716;2024-02-26T05:33:44;2.83;;;2.13;;
12816;SDS011;6473;51.552;6.716;2024-02-26T05:36:17;2.20;;;2.00;;
12816;SDS011;6473;51.552;6.716;2024-02-26T05:38:44;2.50;;;2.30;;
12816;SDS011;6473;51.552;6.716;2024-02-26T05:41:12;2.87;;;2.10;;
12816;SDS011;6473;51.552;6.716;2024-02-26T05:43:39;3.03;;;2.20;;
12816;SDS011;6473;51.552;6.716;2024-02-26T05:46:05;2.43;;;2.23;;
12816;SDS011;6473;51.552;6.716;2024-02-26T05:48:34;2.37;;;2.17;;
12816;SDS011;6473;51.552;6.716;2024-02-26T05:51:01;2.70;;;2.43;;
12816;SDS011;6473;51.552;6.716;2024-02-26T05:53:28;3.17;;;2.17;;
12816;SDS011;6473;51.552;6.716;2024-02-26T05:55:55;3.30;;;2.20;;
12816;SDS011;6473;51.552;6.716;2024-02-26T05:58:21;3.05;;;2.55;;
12816;SDS011;6473;51.552;6.716;2024-02-26T06:00:48;2.67;;;2.47;;
12816;SDS011;6473;51.552;6.716;2024-02-26T06:03:15;3.13;;;2.73;;
12816;SDS011;6473;51.552;6.716;2024-02-26T06:05:43;3.00;;;2.63;;
12816;SDS011;6473;51.552;6.716;2024-02-26T06:08:10;2.70;;;2.47;;
12816;SDS011;6473;51.552;6.716;2024-02-26T06:10:38;3.05;;;2.70;;
12816;SDS011;6473;51.552;6.716;2024-02-26T06:13:06;2.78;;;2.47;;
12816;SDS011;6473;51.552;6.716;2024-02-26T06:15:33;4.57;;;2.45;;
12816;SDS011;6473;51.552;6.716;2024-02-26T06:18:00;2.93;;;2.43;;
12816;SDS011;6473;51.552;6.716;2024-02-26T06:20:27;3.95;;;3.00;;
12816;SDS011;6473;51.552;6.716;2024-02-26T06:22:56;3.00;;;2.70;;
12816;SDS011;6473;51.552;6.716;2024-02-26T06:25:23;3.25;;;2.72;;
12816;SDS011;6473;51.552;6.716;2024-02-26T06:27:50;2.83;;;2.63;;
12816;SDS011;6473;51.552;6.716;2024-02-26T06:30:18;5.20;;;2.40;;
12816;SDS011;6473;51.552;6.716;2024-02-26T06:32:45;3.77;;;3.00;;
12816;SDS011;6473;51.552;6.716;2024-02-26T06:35:12;3.15;;;2.80;;
12816;SDS011;6473;51.552;6.716;2024-02-26T06:37:39;3.97;;;2.25;;
12816;SDS011;6473;51.552;6.716;2024-02-26T06:40:08;2.75;;;2.40;;
12816;SDS011;6473;51.552;6.716;2024-02-26T06:42:35;4.47;;;2.60;;
12816;SDS011;6473;51.552;6.716;2024-02-26T06:45:03;5.30;;;2.70;;
12816;SDS011;6473;51.552;6.716;2024-02-26T06:47:32;4.22;;;2.80;;
12816;SDS011;6473;51.552;6.716;2024-02-26T06:49:59;3.03;;;2.72;;
12816;SDS011;6473;51.552;6.716;2024-02-26T06:52:26;2.42;;;2.20;;
12816;SDS011;6473;51.552;6.716;2024-02-26T06:54:53;2.40;;;2.20;;
12816;SDS011;6473;51.552;6.716;2024-02-26T06:57:21;3.13;;;2.40;;
12816;SDS011;6473;51.552;6.716;2024-02-26T06:59:49;3.33;;;2.33;;
12816;SDS011;6473;51.552;6.716;2024-02-26T07:02:15;2.53;;;2.33;;
12816;SDS011;6473;51.552;6.716;2024-02-26T07:04:43;2.63;;;2.42;;
12816;SDS011;6473;51.552;6.716;2024-02-26T07:07:09;3.38;;;2.40;;
12816;SDS011;6473;51.552;6.716;2024-02-26T07:09:37;2.33;;;2.13;;
12816;SDS011;6473;51.552;6.716;2024-02-26T07:12:04;2.78;;;2.50;;
12816;SDS011;6473;51.552;6.716;2024-02-26T07:14:32;2.40;;;2.20;;
12816;SDS011;6473;51.552;6.716;2024-02-26T07:16:59;2.22;;;2.00;;
12816;SDS011;6473;51.552;6.716;2024-02-26T07:19:26;2.38;;;2.17;;
12816;SDS011;6473;51.552;6.716;2024-02-26T07:21:53;2.58;;;2.38;;
12816;SDS011;6473;51.552;6.716;2024-02-26T07:24:20;2.42;;;2.22;;
12816;SDS011;6473;51.552;6.716;2024-02-26T07:26:47;3.17;;;2.20;;
12816;SDS011;6473;51.552;6.716;2024-02-26T07:29:14;3.38;;;2.40;;
12816;SDS011;6473;51.552;6.716;2024-02-26T07:31:43;2.20;;;2.00;;
12816;SDS011;6473;51.552;6.716;2024-02-26T07:34:09;3.03;;;2.38;;
12816;SDS011;6473;51.552;6.716;2024-02-26T07:36:36;4.15;;;2.42;;
12816;SDS011;6473;51.552;6.716;2024-02-26T07:39:03;2.40;;;2.20;;
12816;SDS011;6473;51.552;6.716;2024-02-26T07:41:31;2.55;;;2.25;;
12816;SDS011;6473;51.552;6.716;2024-02-26T07:43:58;2.30;;;2.10;;
12816;SDS011;6473;51.552;6.716;2024-02-26T07:46:25;2.58;;;2.30;;
12816;SDS011;6473;51.552;6.716;2024-02-26T07:48:53;2.73;;;2.53;;
12816;SDS011;6473;51.552;6.716;2024-02-26T07:51:20;2.35;;;2.15;;
12816;SDS011;6473;51.552;6.716;2024-02-26T07:53:47;2.28;;;2.10;;
12816;SDS011;6473;51.552;6.716;2024-02-26T07:56:14;3.80;;;2.58;;
12816;SDS011;6473;51.552;6.716;2024-02-26T07:58:41;3.13;;;1.92;;
12816;SDS011;6473;51.552;6.716;2024-02-26T08:01:08;3.95;;;2.20;;
12816;SDS011;6473;51.552;6.716;2024-02-26T08:03:36;2.30;;;2.10;;
12816;SDS011;6473;51.552;6.716;2024-02-26T08:06:05;4.20;;;2.63;;
12816;SDS011;6473;51.552;6.716;2024-02-26T08:08:32;3.55;;;2.38;;
12816;SDS011;6473;51.552;6.716;2024-02-26T08:10:59;2.83;;;1.85;;
12816;SDS011;6473;51.552;6.716;2024-02-26T08:13:26;2.65;;;2.20;;
12816;SDS011;6473;51.552;6.716;2024-02-26T08:15:53;2.53;;;2.20;;
12816;SDS011;6473;51.552;6.716;2024-02-26T08:18:20;2.33;;;2.13;;
12816;SDS011;6473;51.552;6.716;2024-02-26T08:20:47;2.88;;;2.58;;
12816;SDS011;6473;51.552;6.716;2024-02-26T08:23:15;2.25;;;2.13;;
12816;SDS011;6473;51.552;6.716;2024-02-26T08:25:42;2.55;;;2.35;;
12816;SDS011;6473;51.552;6.716;2024-02-26T08:28:09;3.22;;;2.92;;
12816;SDS011;6473;51.552;6.716;2024-02-26T08:30:38;6.90;;;2.65;;
12816;SDS011;6473;51.552;6.716;2024-02-26T08:33:05;2.33;;;2.20;;
12816;SDS011;6473;51.552;6.716;2024-02-26T08:35:32;4.32;;;2.67;;
12816;SDS011;6473;51.552;6.716;2024-02-26T08:37:59;3.13;;;2.30;;
12816;SDS011;6473;51.552;6.716;2024-02-26T08:40:27;3.25;;;2.60;;
12816;SDS011;6473;51.552;6.716;2024-02-26T08:42:54;3.10;;;2.35;;
12816;SDS011;6473;51.552;6.716;2024-02-26T08:45:21;2.70;;;2.50;;
12816;SDS011;6473;51.552;6.716;2024-02-26T08:47:48;3.70;;;2.45;;
12816;SDS011;6473;51.552;6.716;2024-02-26T08:50:15;4.03;;;2.10;;
12816;SDS011;6473;51.552;6.716;2024-02-26T08:52:42;3.42;;;2.45;;
12816;SDS011;6473;51.552;6.716;2024-02-26T08:55:09;3.22;;;2.60;;
12816;SDS011;6473;51.552;6.716;2024-02-26T08:57:37;2.42;;;2.22;;
12816;SDS011;6473;51.552;6.716;2024-02-26T09:00:05;2.53;;;2.20;;
12816;SDS011;6473;51.552;6.716;2024-02-26T09:02:32;2.33;;;2.13;;
12816;SDS011;6473;51.552;6.716;2024-02-26T09:04:59;2.45;;;2.25;;
12816;SDS011;6473;51.552;6.716;2024-02-26T09:07:26;2.25;;;2.05;;
12816;SDS011;6473;51.552;6.716;2024-02-26T09:09:53;3.30;;;2.40;;
12816;SDS011;6473;51.552;6.716;2024-02-26T09:12:20;2.30;;;2.10;;
12816;SDS011;6473;51.552;6.716;2024-02-26T09:14:48;3.47;;;2.20;;
12816;SDS011;6473;51.552;6.716;2024-02-26T09:17:15;2.50;;;2.30;;
12816;SDS011;6473;51.552;6.716;2024-02-26T09:19:42;2.08;;;1.90;;
12816;SDS011;6473;51.552;6.716;2024-02-26T09:22:09;2.85;;;2.00;;
12816;SDS011;6473;51.552;6.716;2024-02-26T09:24:36;2.25;;;2.10;;
12816;SDS011;6473;51.552;6.716;2024-02-26T09:27:03;2.55;;;2.00;;
12816;SDS011;6473;51.552;6.716;2024-02-26T09:29:30;2.17;;;2.08;;
12816;SDS011;6473;51.552;6.716;2024-02-26T09:31:59;2.22;;;2.08;;
12816;SDS011;6473;51.552;6.716;2024-02-26T09:34:26;2.60;;;2.40;;
12816;SDS011;6473;51.552;6.716;2024-02-26T09:36:53;2.60;;;2.38;;
12816;SDS011;6473;51.552;6.716;2024-02-26T09:39:20;4.18;;;2.30;;
12816;SDS011;6473;51.552;6.716;2024-02-26T09:41:47;2.95;;;2.58;;
12816;SDS011;6473;51.552;6.716;2024-02-26T09:44:15;4.20;;;2.20;;
12816;SDS011;6473;51.552;6.716;2024-02-26T09:46:44;2.63;;;2.30;;
12816;SDS011;6473;51.552;6.716;2024-02-26T09:49:12;4.20;;;2.30;;
12816;SDS011;6473;51.552;6.716;2024-02-26T09:51:41;2.33;;;2.22;;
12816;SDS011;6473;51.552;6.716;2024-02-26T09:54:09;2.80;;;2.00;;
12816;SDS011;6473;51.552;6.716;2024-02-26T09:56:36;2.20;;;2.00;;
12816;SDS011;6473;51.552;6.716;2024-02-26T09:59:06;3.55;;;2.47;;
12816;SDS011;6473;51.552;6.716;2024-02-26T10:01:39;3.88;;;2.33;;
12816;SDS011;6473;51.552;6.716;2024-02-26T10:04:08;2.60;;;2.10;;
12816;SDS011;6473;51.552;6.716;2024-02-26T10:06:38;2.50;;;2.30;;
12816;SDS011;6473;51.552;6.716;2024-02-26T10:09:06;2.42;;;2.10;;
12816;SDS011;6473;51.552;6.716;2024-02-26T10:11:35;2.92;;;2.30;;
12816;SDS011;6473;51.552;6.716;2024-02-26T10:14:04;3.15;;;2.08;;
12816;SDS011;6473;51.552;6.716;2024-02-26T10:16:31;2.60;;;2.40;;
12816;SDS011;6473;51.552;6.716;2024-02-26T10:18:59;3.80;;;2.58;;
12816;SDS011;6473;51.552;6.716;2024-02-26T10:21:26;2.22;;;2.08;;
12816;SDS011;6473;51.552;6.716;2024-02-26T10:23:55;2.63;;;2.42;;
12816;SDS011;6473;51.552;6.716;2024-02-26T10:26:22;2.63;;;2.42;;
12816;SDS011;6473;51.552;6.716;2024-02-26T10:28:49;4.35;;;3.95;;
12816;SDS011;6473;51.552;6.716;2024-02-26T10:31:15;5.03;;;3.47;;
12816;SDS011;6473;51.552;6.716;2024-02-26T10:33:43;4.57;;;3.83;;
12816;SDS011;6473;51.552;6.716;2024-02-26T10:36:10;4.50;;;4.10;;
12816;SDS011;6473;51.552;6.716;2024-02-26T10:38:37;4.07;;;3.67;;
12816;SDS011;6473;51.552;6.716;2024-02-26T10:41:06;4.10;;;3.17;;
12816;SDS011;6473;51.552;6.716;2024-02-26T10:43:33;3.13;;;2.83;;
12816;SDS011;6473;51.552;6.716;2024-02-26T10:46:00;3.65;;;3.05;;
12816;SDS011;6473;51.552;6.716;2024-02-26T10:48:27;4.93;;;2.60;;
12816;SDS011;6473;51.552;6.716;2024-02-26T10:50:54;3.35;;;2.92;;
12816;SDS011;6473;51.552;6.716;2024-02-26T10:53:23;3.60;;;2.50;;
12816;SDS011;6473;51.552;6.716;2024-02-26T10:55:54;3.70;;;3.03;;
12816;SDS011;6473;51.552;6.716;2024-02-26T10:58:25;3.40;;;3.05;;
12816;SDS011;6473;51.552;6.716;2024-02-26T11:00:53;3.70;;;3.10;;
12816;SDS011;6473;51.552;6.716;2024-02-26T11:03:23;3.25;;;2.88;;
12816;SDS011;6473;51.552;6.716;2024-02-26T11:05:51;3.75;;;3.17;;
12816;SDS011;6473;51.552;6.716;2024-02-26T11:08:18;3.67;;;3.38;;
12816;SDS011;6473;51.552;6.716;2024-02-26T11:10:47;4.50;;;3.92;;
12816;SDS011;6473;51.552;6.716;2024-02-26T11:13:17;4.03;;;3.63;;
12816;SDS011;6473;51.552;6.716;2024-02-26T11:15:46;4.45;;;4.05;;
12816;SDS011;6473;51.552;6.716;2024-02-26T11:18:14;6.90;;;4.50;;
12816;SDS011;6473;51.552;6.716;2024-02-26T11:20:42;4.05;;;3.65;;
12816;SDS011;6473;51.552;6.716;2024-02-26T11:23:10;8.73;;;3.67;;
12816;SDS011;6473;51.552;6.716;2024-02-26T11:25:42;5.07;;;4.07;;
12816;SDS011;6473;51.552;6.716;2024-02-26T11:28:11;6.00;;;4.55;;
12816;SDS011;6473;51.552;6.716;2024-02-26T11:55:47;6.13;;;4.63;;
12816;SDS011;6473;51.552;6.716;2024-02-26T11:58:14;5.95;;;4.80;;
12816;SDS011;6473;51.552;6.716;2024-02-26T12:00:41;5.47;;;4.95;;
12816;SDS011;6473;51.552;6.716;2024-02-26T12:03:09;6.07;;;4.97;;
12816;SDS011;6473;51.552;6.716;2024-02-26T12:05:37;5.00;;;4.40;;
12816;SDS011;6473;51.552;6.716;2024-02-26T12:08:06;5.53;;;4.90;;
12816;SDS011;6473;51.552;6.716;2024-02-26T12:10:35;5.22;;;4.72;;
12816;SDS011;6473;51.552;6.716;2024-02-26T12:13:05;7.45;;;4.70;;
12816;SDS011;6473;51.552;6.716;2024-02-26T12:15:35;5.10;;;4.60;;
12816;SDS011;6473;51.552;6.716;2024-02-26T12:18:04;5.57;;;4.53;;
12816;SDS011;6473;51.552;6.716;2024-02-26T12:20:38;5.28;;;4.70;;
12816;SDS011;6473;51.552;6.716;2024-02-26T12:23:05;6.78;;;4.55;;
12816;SDS011;6473;51.552;6.716;2024-02-26T12:25:32;5.13;;;4.55;;
12816;SDS011;6473;51.552;6.716;2024-02-26T12:28:00;5.55;;;4.47;;
12816;SDS011;6473;51.552;6.716;2024-02-26T12:30:28;5.20;;;4.55;;
12816;SDS011;6473;51.552;6.716;2024-02-26T12:33:12;6.53;;;4.78;;
12816;SDS011;6473;51.552;6.716;2024-02-26T12:35:39;5.90;;;4.53;;
12816;SDS011;6473;51.552;6.716;2024-02-26T14:26:00;4.30;;;3.10;;
12816;SDS011;6473;51.552;6.716;2024-02-26T14:29:22;3.70;;;3.20;;
12816;SDS011;6473;51.552;6.716;2024-02-26T14:32:17;3.60;;;3.30;;
12816;SDS011;6473;51.552;6.716;2024-02-26T14:42:25;4.50;;;3.10;;
12816;SDS011;6473;51.552;6.716;2024-02-26T14:45:09;4.30;;;3.15;;
12816;SDS011;6473;51.552;6.716;2024-02-26T14:48:21;4.05;;;3.35;;
12816;SDS011;6473;51.552;6.716;2024-02-26T14:51:43;5.22;;;3.10;;
12816;SDS011;6473;51.552;6.716;2024-02-26T14:54:31;4.07;;;3.63;;
12816;SDS011;6473;51.552;6.716;2024-02-26T14:57:18;3.97;;;3.53;;
12816;SDS011;6473;51.552;6.716;2024-02-26T15:02:58;5.07;;;3.83;;
12816;SDS011;6473;51.552;6.716;2024-02-26T15:05:43;4.65;;;3.90;;
12816;SDS011;6473;51.552;6.716;2024-02-26T15:08:41;5.10;;;4.00;;
12816;SDS011;6473;51.552;6.716;2024-02-26T15:11:25;6.38;;;4.20;;
12816;SDS011;6473;51.552;6.716;2024-02-26T15:14:04;5.97;;;4.28;;
12816;SDS011;6473;51.552;6.716;2024-02-26T15:16:57;5.38;;;4.22;;
12816;SDS011;6473;51.552;6.716;2024-02-26T15:57:05;8.15;;;5.22;;
12816;SDS011;6473;51.552;6.716;2024-02-26T15:59:34;8.05;;;6.03;;
12816;SDS011;6473;51.552;6.716;2024-02-26T16:02:01;7.00;;;5.68;;
12816;SDS011;6473;51.552;6.716;2024-02-26T16:04:28;8.65;;;6.40;;
12816;SDS011;6473;51.552;6.716;2024-02-26T16:06:56;8.52;;;6.45;;
12816;SDS011;6473;51.552;6.716;2024-02-26T16:09:26;7.97;;;6.32;;
12816;SDS011;6473;51.552;6.716;2024-02-26T16:11:55;7.43;;;6.53;;
12816;SDS011;6473;51.552;6.716;2024-02-26T16:14:26;9.88;;;6.93;;
12816;SDS011;6473;51.552;6.716;2024-02-26T16:28:20;7.32;;;5.95;;
12816;SDS011;6473;51.552;6.716;2024-02-26T16:30:50;8.82;;;6.47;;
12816;SDS011;6473;51.552;6.716;2024-02-26T16:33:19;9.38;;;6.15;;
12816;SDS011;6473;51.552;6.716;2024-02-26T16:35:46;8.77;;;6.20;;
12816;SDS011;6473;51.552;6.716;2024-02-26T16:38:13;9.05;;;6.63;;
12816;SDS011;6473;51.552;6.716;2024-02-26T16:40:40;7.80;;;5.80;;
12816;SDS011;6473;51.552;6.716;2024-02-26T16:47:10;8.55;;;6.03;;
12816;SDS011;6473;51.552;6.716;2024-02-26T16:49:37;9.15;;;6.75;;
12816;SDS011;6473;51.552;6.716;2024-02-26T16:52:05;7.85;;;6.30;;
12816;SDS011;6473;51.552;6.716;2024-02-26T16:54:32;8.38;;;6.05;;
12816;SDS011;6473;51.552;6.716;2024-02-26T16:56:59;7.80;;;6.63;;
12816;SDS011;6473;51.552;6.716;2024-02-26T16:59:27;7.65;;;6.15;;
12816;SDS011;6473;51.552;6.716;2024-02-26T17:01:54;7.80;;;6.10;;
12816;SDS011;6473;51.552;6.716;2024-02-26T17:04:22;7.88;;;6.00;;
12816;SDS011;6473;51.552;6.716;2024-02-26T17:06:51;8.82;;;6.30;;
12816;SDS011;6473;51.552;6.716;2024-02-26T17:13:08;8.73;;;6.72;;
12816;SDS011;6473;51.552;6.716;2024-02-26T17:25:21;9.25;;;6.60;;
12816;SDS011;6473;51.552;6.716;2024-02-26T17:27:48;8.82;;;6.38;;
12816;SDS011;6473;51.552;6.716;2024-02-26T17:30:15;9.48;;;6.78;;
12816;SDS011;6473;51.552;6.716;2024-02-26T17:32:42;7.60;;;6.40;;
12816;SDS011;6473;51.552;6.716;2024-02-26T17:35:09;8.43;;;7.00;;
12816;SDS011;6473;51.552;6.716;2024-02-26T17:37:40;8.27;;;6.63;;
12816;SDS011;6473;51.552;6.716;2024-02-26T17:40:07;8.30;;;6.88;;
12816;SDS011;6473;51.552;6.716;2024-02-26T17:42:36;7.75;;;6.20;;
12816;SDS011;6473;51.552;6.716;2024-02-26T17:45:04;8.00;;;6.72;;
12816;SDS011;6473;51.552;6.716;2024-02-26T17:47:32;9.15;;;6.97;;
12816;SDS011;6473;51.552;6.716;2024-02-26T17:49:59;8.82;;;6.93;;
12816;SDS011;6473;51.552;6.716;2024-02-26T17:52:27;10.30;;;6.88;;
12816;SDS011;6473;51.552;6.716;2024-02-26T17:54:59;8.15;;;6.65;;
12816;SDS011;6473;51.552;6.716;2024-02-26T17:57:30;9.93;;;7.18;;
12816;SDS011;6473;51.552;6.716;2024-02-26T18:00:02;10.55;;;7.28;;
12816;SDS011;6473;51.552;6.716;2024-02-26T18:02:31;9.82;;;7.47;;
12816;SDS011;6473;51.552;6.716;2024-02-26T18:04:59;9.07;;;7.20;;
12816;SDS011;6473;51.552;6.716;2024-02-26T18:07:26;12.00;;;7.95;;
12816;SDS011;6473;51.552;6.716;2024-02-26T18:09:53;9.68;;;7.45;;
12816;SDS011;6473;51.552;6.716;2024-02-26T18:12:22;9.85;;;7.40;;
12816;SDS011;6473;51.552;6.716;2024-02-26T18:14:49;10.73;;;7.32;;
12816;SDS011;6473;51.552;6.716;2024-02-26T18:17:20;8.95;;;7.57;;
12816;SDS011;6473;51.552;6.716;2024-02-26T18:19:48;12.20;;;7.65;;
12816;SDS011;6473;51.552;6.716;2024-02-26T18:22:15;10.02;;;7.93;;
12816;SDS011;6473;51.552;6.716;2024-02-26T18:24:42;11.07;;;7.72;;
12816;SDS011;6473;51.552;6.716;2024-02-26T18:27:09;11.65;;;8.18;;
12816;SDS011;6473;51.552;6.716;2024-02-26T18:29:36;8.93;;;7.35;;
12816;SDS011;6473;51.552;6.716;2024-02-26T18:32:03;8.82;;;7.45;;
12816;SDS011;6473;51.552;6.716;2024-02-26T18:34:34;10.25;;;8.05;;
12816;SDS011;6473;51.552;6.716;2024-02-26T18:37:01;10.73;;;7.95;;
12816;SDS011;6473;51.552;6.716;2024-02-26T18:39:28;11.85;;;8.40;;